createdAt,value
2022-07-31T00:01:55.991Z,97454.72
2022-07-31T00:04:44.636Z,97453.72
2022-07-31T00:07:26.616Z,97456.84
2022-07-31T00:10:16.616Z,97460.63
2022-07-31T00:13:06.337Z,97443.72
2022-07-31T00:15:54.624Z,97448.75
2022-07-31T00:18:36.571Z,97457.28
2022-07-31T00:21:25.630Z,97449.38
2022-07-31T00:24:07.232Z,97457.94
2022-07-31T00:26:48.721Z,97460.50
2022-07-31T00:29:41.348Z,97458.75
2022-07-31T00:32:23.853Z,97466.09
2022-07-31T00:35:12.606Z,97462.63
2022-07-31T00:38:25.694Z,97461.28
2022-07-31T00:41:17.568Z,97449.28
2022-07-31T00:43:59.494Z,97457.75
2022-07-31T00:46:49.567Z,97456.75
2022-07-31T00:49:37.329Z,97460.88
2022-07-31T00:52:27.338Z,97450.34
2022-07-31T00:55:10.113Z,97457.50
2022-07-31T00:57:58.237Z,97456.03
2022-07-31T01:00:40.331Z,97455.72
2022-07-31T01:03:29.509Z,97457.31
2022-07-31T01:06:11.718Z,97468.50
2022-07-31T01:09:00.366Z,97458.78
2022-07-31T01:12:00.385Z,97460.28
2022-07-31T01:14:54.590Z,97462.03
2022-07-31T01:17:37.793Z,97475.84
2022-07-31T01:20:26.589Z,97473.81
2022-07-31T01:23:24.125Z,97473.72
2022-07-31T01:27:02.516Z,97477.53
2022-07-31T01:29:55.348Z,97480.06
2022-07-31T01:33:02.605Z,97483.13
2022-07-31T01:35:57.641Z,97486.03
2022-07-31T01:38:46.347Z,97487.94
2022-07-31T01:41:46.202Z,97494.41
2022-07-31T01:44:43.589Z,97491.66
2022-07-31T01:47:29.594Z,97487.75
2022-07-31T01:50:42.122Z,97490.66
2022-07-31T01:53:24.670Z,97499.06
2022-07-31T01:56:17.605Z,97507.41
2022-07-31T01:59:00.892Z,97520.41
2022-07-31T02:01:58.375Z,97510.59
2022-07-31T02:04:41.790Z,97517.41
2022-07-31T02:07:32.368Z,97524.97
2022-07-31T02:10:19.623Z,97516.13
2022-07-31T02:13:10.590Z,97529.84
2022-07-31T02:15:53.855Z,97530.84
2022-07-31T02:18:43.334Z,97525.47
2022-07-31T02:21:40.611Z,97518.53
2022-07-31T02:24:29.856Z,97518.94
2022-07-31T02:27:53.727Z,97508.50
2022-07-31T02:30:21.291Z,97508.81
2022-07-31T02:33:11.601Z,97502.91
2022-07-31T02:36:06.995Z,97511.75
2022-07-31T02:38:51.597Z,97510.97
2022-07-31T02:41:40.591Z,97505.78
2022-07-31T02:44:29.877Z,97507.41
2022-07-31T02:47:12.332Z,97517.00
2022-07-31T02:50:01.619Z,97527.16
2022-07-31T02:52:46.374Z,97532.00
2022-07-31T02:55:29.233Z,97554.31
2022-07-31T02:58:18.351Z,97556.41
2022-07-31T03:01:07.501Z,97578.94
2022-07-31T03:03:57.592Z,97600.09
2022-07-31T03:06:45.880Z,97604.50
2022-07-31T03:09:27.576Z,97599.25
2022-07-31T03:12:27.628Z,97596.63
2022-07-31T03:15:19.041Z,97608.56
2022-07-31T03:18:11.786Z,97627.94
2022-07-31T03:20:54.587Z,97662.94
2022-07-31T03:23:46.598Z,97654.81
2022-07-31T03:26:30.712Z,97662.38
2022-07-31T03:29:38.903Z,97672.53
2022-07-31T03:32:22.697Z,97660.03
2022-07-31T03:35:11.578Z,97659.34
2022-07-31T03:37:53.694Z,97648.84
2022-07-31T03:40:43.572Z,97642.09
2022-07-31T03:43:43.641Z,97647.28
2022-07-31T03:46:37.602Z,97634.72
2022-07-31T03:49:19.932Z,97636.16
2022-07-31T03:52:12.028Z,97620.84
2022-07-31T03:55:01.238Z,97599.34
2022-07-31T03:57:51.602Z,97580.69
2022-07-31T04:00:35.556Z,97588.81
2022-07-31T04:03:24.356Z,97602.56
2022-07-31T04:06:44.339Z,97609.16
2022-07-31T04:09:28.790Z,97608.47
2022-07-31T04:12:20.588Z,97607.84
2022-07-31T04:15:02.933Z,97612.59
2022-07-31T04:17:51.379Z,97596.09
2022-07-31T04:20:42.247Z,97607.94
2022-07-31T04:23:32.600Z,97607.09
2022-07-31T04:26:40.590Z,97591.66
2022-07-31T04:29:29.330Z,97576.69
2022-07-31T04:32:20.579Z,97587.75
2022-07-31T04:35:08.557Z,97582.66
2022-07-31T04:37:57.595Z,97588.34
2022-07-31T04:40:42.753Z,97592.19
2022-07-31T04:43:38.331Z,97599.34
2022-07-31T04:46:21.073Z,97605.91
2022-07-31T04:49:10.495Z,97602.09
2022-07-31T04:51:58.645Z,97603.03
2022-07-31T04:54:41.566Z,97602.09
2022-07-31T04:57:29.519Z,97600.56
2022-07-31T05:00:17.327Z,97594.81
2022-07-31T05:03:05.870Z,97583.56
2022-07-31T05:05:50.999Z,97591.22
2022-07-31T05:08:32.798Z,97598.47
2022-07-31T05:11:31.574Z,97596.50
2022-07-31T05:14:14.788Z,97595.13
2022-07-31T05:17:03.573Z,97600.16
2022-07-31T05:20:14.581Z,97602.25
2022-07-31T05:23:19.596Z,97588.75
2022-07-31T05:26:12.598Z,97585.28
2022-07-31T05:29:03.339Z,97581.09
2022-07-31T05:32:00.753Z,97586.97
2022-07-31T05:34:44.676Z,97584.78
2022-07-31T05:37:33.571Z,97592.53
2022-07-31T05:40:17.609Z,97579.28
2022-07-31T05:43:26.576Z,97567.84
2022-07-31T05:46:32.315Z,97559.84
2022-07-31T05:49:15.895Z,97562.88
2022-07-31T05:52:07.597Z,97568.94
2022-07-31T05:54:57.345Z,97572.78
2022-07-31T05:57:57.906Z,97584.66
2022-07-31T06:00:46.594Z,97586.47
2022-07-31T06:03:51.754Z,97579.28
2022-07-31T06:06:47.316Z,97569.56
2022-07-31T06:09:36.577Z,97574.13
2022-07-31T06:12:18.560Z,97574.91
2022-07-31T06:15:08.566Z,97568.53
2022-07-31T06:17:58.012Z,97562.91
2022-07-31T06:20:40.584Z,97570.44
2022-07-31T06:23:32.255Z,97561.41
2022-07-31T06:26:32.222Z,97572.34
2022-07-31T06:29:14.985Z,97566.56
2022-07-31T06:32:03.497Z,97575.09
2022-07-31T06:34:46.641Z,97577.81
2022-07-31T06:37:37.343Z,97575.88
2022-07-31T06:40:19.765Z,97576.50
2022-07-31T06:43:27.813Z,97587.28
2022-07-31T06:46:48.875Z,97573.13
2022-07-31T06:49:56.363Z,97565.16
2022-07-31T06:52:44.942Z,97574.97
2022-07-31T06:55:33.566Z,97581.09
2022-07-31T06:58:15.756Z,97578.75
2022-07-31T07:01:04.634Z,97584.22
2022-07-31T07:03:47.116Z,97589.22
2022-07-31T07:06:35.567Z,97587.59
2022-07-31T07:09:24.311Z,97589.22
2022-07-31T07:12:16.620Z,97580.06
2022-07-31T07:14:59.585Z,97585.94
2022-07-31T07:17:47.821Z,97585.13
2022-07-31T07:20:40.361Z,97595.88
2022-07-31T07:23:30.389Z,97602.84
2022-07-31T07:26:25.776Z,97597.69
2022-07-31T07:29:18.566Z,97577.56
2022-07-31T07:32:00.913Z,97569.69
2022-07-31T07:34:49.218Z,97573.97
2022-07-31T07:37:57.013Z,97588.75
2022-07-31T07:40:45.576Z,97586.72
2022-07-31T07:43:28.024Z,97577.13
2022-07-31T07:46:23.601Z,97589.31
2022-07-31T07:49:08.831Z,97572.72
2022-07-31T07:52:28.945Z,97562.25
2022-07-31T07:55:13.835Z,97554.03
2022-07-31T07:58:33.583Z,97551.53
2022-07-31T08:01:41.633Z,97544.72
2022-07-31T08:04:35.597Z,97531.09
2022-07-31T08:07:23.592Z,97521.50
2022-07-31T08:10:50.369Z,97515.72
2022-07-31T08:13:50.874Z,97509.09
2022-07-31T08:16:58.555Z,97509.63
2022-07-31T08:19:51.162Z,97505.97
2022-07-31T08:22:33.329Z,97511.97
2022-07-31T08:25:21.827Z,97502.50
2022-07-31T08:28:04.309Z,97500.38
2022-07-31T08:30:55.751Z,97480.25
2022-07-31T08:33:40.593Z,97482.56
2022-07-31T08:36:28.772Z,97477.09
2022-07-31T08:39:11.326Z,97482.84
2022-07-31T08:42:14.375Z,97473.84
2022-07-31T08:45:03.355Z,97475.41
2022-07-31T08:48:05.564Z,97476.28
2022-07-31T08:51:02.336Z,97469.13
2022-07-31T08:54:03.726Z,97453.41
2022-07-31T08:56:46.574Z,97433.63
2022-07-31T08:59:28.699Z,97410.09
2022-07-31T09:02:17.553Z,97405.88
2022-07-31T09:05:42.382Z,97404.66
2022-07-31T09:08:31.331Z,97411.44
2022-07-31T09:11:16.147Z,97394.34
2022-07-31T09:14:18.365Z,97387.69
2022-07-31T09:17:16.165Z,97382.72
2022-07-31T09:19:59.325Z,97374.47
2022-07-31T09:22:42.433Z,97366.63
2022-07-31T09:25:31.338Z,97366.63
2022-07-31T09:28:13.656Z,97345.16
2022-07-31T09:31:10.336Z,97341.16
2022-07-31T09:34:12.970Z,97322.94
2022-07-31T09:37:24.521Z,97316.53
2022-07-31T09:40:57.082Z,97327.72
2022-07-31T09:44:09.459Z,97330.88
2022-07-31T09:47:04.497Z,97340.41
2022-07-31T09:49:57.300Z,97333.13
2022-07-31T09:53:01.591Z,97328.09
2022-07-31T09:56:05.325Z,97338.06
2022-07-31T09:58:49.003Z,97330.13
2022-07-31T10:01:43.579Z,97321.34
2022-07-31T10:04:27.628Z,97310.25
2022-07-31T10:07:32.308Z,97304.69
2022-07-31T10:10:21.934Z,97305.50
2022-07-31T10:13:23.566Z,97305.34
2022-07-31T10:16:15.579Z,97292.00
2022-07-31T10:19:16.784Z,97287.63
2022-07-31T10:22:19.429Z,97289.59
2022-07-31T10:25:04.454Z,97294.38
2022-07-31T10:27:54.377Z,97298.34
2022-07-31T10:30:44.570Z,97300.72
2022-07-31T10:33:44.072Z,97285.25
2022-07-31T10:36:49.396Z,97284.78
2022-07-31T10:40:15.312Z,97291.19
2022-07-31T10:43:30.205Z,97276.06
2022-07-31T10:46:48.331Z,97277.22
2022-07-31T10:49:51.649Z,97270.50
2022-07-31T10:53:09.548Z,97282.47
2022-07-31T10:56:11.802Z,97297.13
2022-07-31T10:59:15.558Z,97306.13
2022-07-31T11:02:15.421Z,97293.09
2022-07-31T11:05:30.644Z,97294.28
2022-07-31T11:08:26.323Z,97298.66
2022-07-31T11:11:17.758Z,97303.00
2022-07-31T11:14:22.561Z,97302.94
2022-07-31T11:18:21.160Z,97299.03
2022-07-31T11:21:35.818Z,97299.78
2022-07-31T11:24:36.544Z,97317.59
2022-07-31T11:27:24.506Z,97315.53
2022-07-31T11:30:17.545Z,97310.78
2022-07-31T11:32:59.546Z,97302.41
2022-07-31T11:36:00.307Z,97288.53
2022-07-31T11:38:54.786Z,97286.91
2022-07-31T11:41:44.282Z,97269.31
2022-07-31T11:44:26.404Z,97246.72
2022-07-31T11:47:55.991Z,97231.47
2022-07-31T11:50:23.468Z,97235.22
2022-07-31T11:53:14.576Z,97234.41
2022-07-31T11:55:58.723Z,97230.88
2022-07-31T11:58:48.572Z,97234.00
2022-07-31T12:01:31.242Z,97237.41
2022-07-31T12:04:20.538Z,97243.06
2022-07-31T12:07:09.586Z,97237.31
2022-07-31T12:10:00.621Z,97240.09
2022-07-31T12:12:50.619Z,97233.88
2022-07-31T12:15:32.327Z,97224.09
2022-07-31T12:18:14.657Z,97230.91
2022-07-31T12:21:16.308Z,97221.66
2022-07-31T12:24:06.284Z,97225.09
2022-07-31T12:26:57.064Z,97221.25
2022-07-31T12:29:48.557Z,97231.91
2022-07-31T12:32:34.836Z,97242.75
2022-07-31T12:35:23.321Z,97256.94
2022-07-31T12:38:24.022Z,97273.88
2022-07-31T12:41:15.559Z,97302.84
2022-07-31T12:43:57.617Z,97334.25
2022-07-31T12:46:46.552Z,97357.75
2022-07-31T12:49:41.535Z,97370.44
2022-07-31T12:52:31.307Z,97374.31
2022-07-31T12:55:13.805Z,97371.84
2022-07-31T12:58:05.596Z,97373.81
2022-07-31T13:00:47.759Z,97375.41
2022-07-31T13:03:38.912Z,97376.97
2022-07-31T13:06:29.230Z,97376.56
2022-07-31T13:09:18.310Z,97350.81
2022-07-31T13:12:00.639Z,97348.00
2022-07-31T13:14:49.259Z,97340.75
2022-07-31T13:17:43.533Z,97336.06
2022-07-31T13:20:26.305Z,97326.47
2022-07-31T13:23:15.333Z,97332.69
2022-07-31T13:26:08.549Z,97343.50
2022-07-31T13:28:50.882Z,97358.84
2022-07-31T13:31:39.335Z,97368.25
2022-07-31T13:34:21.799Z,97378.84
2022-07-31T13:37:10.329Z,97381.28
2022-07-31T13:39:59.344Z,97379.13
2022-07-31T13:42:48.219Z,97378.59
2022-07-31T13:45:31.739Z,97382.59
2022-07-31T13:48:20.537Z,97375.97
2022-07-31T13:51:09.561Z,97374.13
2022-07-31T13:53:59.553Z,97364.16
2022-07-31T13:56:43.723Z,97364.63
2022-07-31T13:59:32.288Z,97372.53
2022-07-31T14:02:15.251Z,97381.59
2022-07-31T14:05:04.624Z,97398.16
2022-07-31T14:07:51.994Z,97406.53
2022-07-31T14:10:42.553Z,97430.31
2022-07-31T14:13:42.197Z,97445.69
2022-07-31T14:16:24.522Z,97461.50
2022-07-31T14:19:13.456Z,97466.63
2022-07-31T14:21:57.020Z,97469.84
2022-07-31T14:24:50.046Z,97472.63
2022-07-31T14:27:47.297Z,97479.22
2022-07-31T14:30:29.855Z,97491.66
2022-07-31T14:33:19.311Z,97496.09
2022-07-31T14:36:08.536Z,97496.47
2022-07-31T14:38:50.910Z,97492.25
2022-07-31T14:41:39.580Z,97488.47
2022-07-31T14:44:28.816Z,97495.50
2022-07-31T14:47:19.289Z,97502.25
2022-07-31T14:50:19.248Z,97503.69
2022-07-31T14:53:07.620Z,97508.59
2022-07-31T14:55:51.883Z,97514.00
2022-07-31T14:58:58.568Z,97515.16
2022-07-31T15:01:40.967Z,97523.88
2022-07-31T15:04:29.559Z,97526.28
2022-07-31T15:07:34.327Z,97515.09
2022-07-31T15:10:20.561Z,97518.22
2022-07-31T15:13:02.985Z,97526.28
2022-07-31T15:15:51.570Z,97545.41
2022-07-31T15:18:33.917Z,97559.50
2022-07-31T15:21:25.317Z,97565.13
2022-07-31T15:24:14.568Z,97573.28
2022-07-31T15:27:03.805Z,97584.22
2022-07-31T15:30:03.417Z,97585.97
2022-07-31T15:32:49.172Z,97589.81
2022-07-31T15:35:38.307Z,97594.69
2022-07-31T15:38:27.309Z,97587.41
2022-07-31T15:41:09.642Z,97569.88
2022-07-31T15:43:58.547Z,97546.56
2022-07-31T15:46:47.310Z,97536.56
2022-07-31T15:49:44.414Z,97541.72
2022-07-31T15:52:42.410Z,97549.81
2022-07-31T15:55:31.553Z,97541.88
2022-07-31T15:58:20.536Z,97528.50
2022-07-31T16:01:03.016Z,97516.00
2022-07-31T16:03:53.438Z,97517.25
2022-07-31T16:06:35.495Z,97538.13
2022-07-31T16:09:24.560Z,97562.91
2022-07-31T16:12:13.643Z,97576.28
2022-07-31T16:14:56.577Z,97566.91
2022-07-31T16:17:39.763Z,97574.91
2022-07-31T16:20:31.370Z,97572.00
2022-07-31T16:23:20.832Z,97564.88
2022-07-31T16:26:03.336Z,97558.59
2022-07-31T16:28:54.282Z,97558.66
2022-07-31T16:31:36.577Z,97561.44
2022-07-31T16:34:21.562Z,97565.63
2022-07-31T16:37:10.526Z,97578.28
2022-07-31T16:39:54.732Z,97574.56
2022-07-31T16:42:45.032Z,97578.03
2022-07-31T16:45:33.560Z,97575.31
2022-07-31T16:48:15.863Z,97577.66
2022-07-31T16:51:04.330Z,97578.44
2022-07-31T16:54:10.912Z,97579.06
2022-07-31T16:56:54.548Z,97585.09
2022-07-31T16:59:57.919Z,97599.56
2022-07-31T17:02:46.547Z,97607.50
2022-07-31T17:05:34.666Z,97602.94
2022-07-31T17:08:16.330Z,97590.44
2022-07-31T17:11:04.961Z,97586.03
2022-07-31T17:13:47.546Z,97586.31
2022-07-31T17:16:29.803Z,97590.31
2022-07-31T17:19:41.414Z,97589.16
2022-07-31T17:22:27.570Z,97599.06
2022-07-31T17:25:09.619Z,97615.19
2022-07-31T17:27:59.557Z,97619.13
2022-07-31T17:30:41.529Z,97621.56
2022-07-31T17:33:59.228Z,97628.34
2022-07-31T17:36:39.524Z,97617.59
2022-07-31T17:39:30.888Z,97625.53
2022-07-31T17:42:14.561Z,97619.03
2022-07-31T17:45:06.556Z,97630.13
2022-07-31T17:47:48.715Z,97625.88
2022-07-31T17:50:54.211Z,97630.91
2022-07-31T17:53:55.428Z,97635.34
2022-07-31T17:56:54.302Z,97636.13
2022-07-31T17:59:42.660Z,97638.75
2022-07-31T18:02:40.567Z,97632.63
2022-07-31T18:05:22.716Z,97631.34
2022-07-31T18:08:11.557Z,97637.41
2022-07-31T18:10:54.800Z,97638.34
2022-07-31T18:13:48.010Z,97634.16
2022-07-31T18:16:31.075Z,97630.72
2022-07-31T18:19:19.331Z,97632.31
2022-07-31T18:22:03.146Z,97632.28
2022-07-31T18:24:52.546Z,97627.97
2022-07-31T18:27:41.298Z,97623.56
2022-07-31T18:30:24.254Z,97614.94
2022-07-31T18:33:21.521Z,97608.09
2022-07-31T18:36:10.297Z,97609.31
2022-07-31T18:38:52.292Z,97608.38
2022-07-31T18:41:48.365Z,97614.41
2022-07-31T18:44:30.572Z,97622.44
2022-07-31T18:47:18.672Z,97621.84
2022-07-31T18:51:01.114Z,97622.78
2022-07-31T18:53:03.521Z,97615.78
2022-07-31T18:55:59.191Z,97607.34
2022-07-31T18:58:50.602Z,97606.78
2022-07-31T19:01:39.485Z,97606.03
2022-07-31T19:04:31.572Z,97607.22
2022-07-31T19:07:20.531Z,97592.41
2022-07-31T19:10:09.640Z,97602.72
2022-07-31T19:13:18.621Z,97617.69
2022-07-31T19:16:08.559Z,97604.91
2022-07-31T19:18:50.807Z,97597.84
2022-07-31T19:21:42.134Z,97586.72
2022-07-31T19:24:25.035Z,97589.28
2022-07-31T19:27:13.600Z,97582.88
2022-07-31T19:29:55.894Z,97584.53
2022-07-31T19:32:45.581Z,97591.69
2022-07-31T19:35:28.045Z,97586.09
2022-07-31T19:38:16.556Z,97579.88
2022-07-31T19:40:58.994Z,97570.03
2022-07-31T19:43:47.188Z,97573.56
2022-07-31T19:46:29.950Z,97575.38
2022-07-31T19:49:18.651Z,97573.66
2022-07-31T19:52:07.613Z,97579.75
2022-07-31T19:55:02.147Z,97574.69
2022-07-31T19:57:50.543Z,97568.41
2022-07-31T20:00:39.567Z,97571.09
2022-07-31T20:03:21.992Z,97574.09
2022-07-31T20:06:10.273Z,97573.94
2022-07-31T20:08:52.602Z,97569.34
2022-07-31T20:11:41.546Z,97573.13
2022-07-31T20:14:29.481Z,97561.22
2022-07-31T20:17:11.215Z,97563.31
2022-07-31T20:20:14.707Z,97557.16
2022-07-31T20:22:57.635Z,97552.00
2022-07-31T20:25:47.531Z,97547.63
2022-07-31T20:28:29.732Z,97549.38
2022-07-31T20:31:21.764Z,97548.22
2022-07-31T20:34:10.320Z,97537.06
2022-07-31T20:37:00.283Z,97526.13
2022-07-31T20:39:49.314Z,97536.81
2022-07-31T20:42:31.789Z,97527.50
2022-07-31T20:45:21.282Z,97525.25
2022-07-31T20:48:10.288Z,97516.47
2022-07-31T20:50:59.519Z,97510.56
2022-07-31T20:53:48.541Z,97504.31
2022-07-31T20:56:36.814Z,97508.63
2022-07-31T20:59:18.456Z,97502.88
2022-07-31T21:02:00.403Z,97501.53
2022-07-31T21:04:49.521Z,97499.66
2022-07-31T21:07:31.355Z,97500.59
2022-07-31T21:10:21.269Z,97499.97
2022-07-31T21:13:04.431Z,97503.31
2022-07-31T21:15:53.305Z,97499.97
2022-07-31T21:18:40.007Z,97496.19
2022-07-31T21:21:32.533Z,97484.97
2022-07-31T21:24:15.581Z,97486.03
2022-07-31T21:27:06.429Z,97489.41
2022-07-31T21:29:49.887Z,97486.81
2022-07-31T21:32:40.557Z,97490.88
2022-07-31T21:35:36.693Z,97496.69
2022-07-31T21:38:26.309Z,97514.41
2022-07-31T21:41:09.173Z,97522.94
2022-07-31T21:43:59.864Z,97524.94
2022-07-31T21:46:42.047Z,97525.03
2022-07-31T21:49:36.333Z,97524.75
2022-07-31T21:52:24.651Z,97526.84
2022-07-31T21:55:11.178Z,97537.00
2022-07-31T21:58:06.546Z,97547.63
2022-07-31T22:00:55.680Z,97544.34
2022-07-31T22:03:37.272Z,97543.78
2022-07-31T22:06:44.542Z,97547.19
2022-07-31T22:09:27.599Z,97548.72
2022-07-31T22:12:16.305Z,97556.94
2022-07-31T22:14:58.830Z,97558.03
2022-07-31T22:17:47.528Z,97549.34
2022-07-31T22:20:29.727Z,97547.91
2022-07-31T22:23:18.553Z,97567.03
2022-07-31T22:26:00.441Z,97575.03
2022-07-31T22:28:50.288Z,97594.72
2022-07-31T22:31:33.792Z,97587.75
2022-07-31T22:34:37.059Z,97584.38
2022-07-31T22:37:20.928Z,97606.47
2022-07-31T22:40:09.530Z,97616.81
2022-07-31T22:42:56.062Z,97610.59
2022-07-31T22:45:46.326Z,97607.50
2022-07-31T22:48:30.571Z,97598.63
2022-07-31T22:51:19.279Z,97604.47
2022-07-31T22:54:01.795Z,97601.47
2022-07-31T22:56:50.541Z,97598.34
2022-07-31T22:59:32.842Z,97600.00
2022-07-31T23:02:23.571Z,97599.75
2022-07-31T23:05:05.846Z,97592.81
2022-07-31T23:07:54.517Z,97597.38
2022-07-31T23:10:36.583Z,97596.69
2022-07-31T23:13:25.531Z,97605.53
2022-07-31T23:16:07.741Z,97613.34
2022-07-31T23:18:57.531Z,97619.34
2022-07-31T23:21:39.589Z,97622.34
2022-07-31T23:24:28.284Z,97625.19
2022-07-31T23:27:17.513Z,97631.03
2022-07-31T23:30:06.282Z,97629.94
2022-07-31T23:32:48.861Z,97632.03
2022-07-31T23:35:37.547Z,97627.44
2022-07-31T23:38:19.565Z,97631.59
2022-07-31T23:41:08.526Z,97655.50
2022-07-31T23:43:54.211Z,97666.78
2022-07-31T23:46:39.580Z,97656.50
2022-07-31T23:49:28.842Z,97671.00
2022-07-31T23:52:10.529Z,97686.63
2022-07-31T23:54:52.380Z,97676.16
2022-07-31T23:57:41.246Z,97673.41
